createdAt,value
2023-03-18T00:01:40.982Z,15.90
2023-03-18T00:06:38.541Z,28.63
2023-03-18T00:11:32.689Z,20.40
2023-03-18T00:16:27.939Z,16.33
2023-03-18T00:21:20.816Z,22.45
2023-03-18T00:26:13.927Z,18.30
2023-03-18T00:31:11.273Z,17.02
2023-03-18T00:36:06.506Z,20.85
2023-03-18T00:41:11.480Z,20.98
2023-03-18T00:46:05.788Z,19.77
2023-03-18T00:50:59.575Z,22.80
2023-03-18T00:55:53.949Z,18.20
2023-03-18T01:00:47.373Z,15.98
2023-03-18T01:05:41.197Z,11.95
2023-03-18T01:10:35.524Z,15.25
2023-03-18T01:15:29.136Z,11.25
2023-03-18T01:20:21.606Z,14.80
2023-03-18T01:25:18.693Z,14.75
2023-03-18T01:30:16.660Z,13.48
2023-03-18T01:35:09.970Z,15.35
2023-03-18T01:40:02.833Z,15.00
2023-03-18T01:45:32.622Z,13.60
2023-03-18T01:50:49.078Z,14.00
2023-03-18T01:55:42.254Z,12.23
2023-03-18T02:00:40.618Z,11.90
2023-03-18T02:05:33.161Z,12.40
2023-03-18T02:10:29.869Z,15.30
2023-03-18T02:15:28.007Z,13.75
2023-03-18T02:20:37.997Z,20.10
2023-03-18T02:25:50.285Z,12.23
2023-03-18T02:30:49.973Z,12.02
2023-03-18T02:35:46.505Z,14.27
2023-03-18T02:40:43.469Z,10.40
2023-03-18T02:45:59.145Z,11.88
2023-03-18T02:50:52.490Z,10.60
2023-03-18T02:55:44.890Z,14.30
2023-03-18T03:00:38.856Z,11.13
2023-03-18T03:05:32.894Z,10.55
2023-03-18T03:10:26.360Z,13.50
2023-03-18T03:15:21.387Z,11.85
2023-03-18T03:20:20.539Z,11.77
2023-03-18T03:25:14.896Z,16.60
2023-03-18T03:30:12.638Z,9.20
2023-03-18T03:35:08.349Z,12.00
2023-03-18T03:40:03.018Z,10.40
2023-03-18T03:44:56.323Z,14.25
2023-03-18T03:49:50.026Z,11.15
2023-03-18T03:54:42.998Z,10.23
2023-03-18T03:59:36.654Z,13.65
2023-03-18T04:04:46.741Z,11.25
2023-03-18T04:09:56.528Z,10.77
2023-03-18T04:14:51.411Z,12.70
2023-03-18T04:19:48.964Z,12.57
2023-03-18T04:24:43.382Z,10.75
2023-03-18T04:29:36.677Z,13.27
2023-03-18T04:34:30.922Z,14.38
2023-03-18T04:39:24.647Z,16.27
2023-03-18T04:44:19.800Z,11.48
2023-03-18T04:49:17.222Z,12.50
2023-03-18T04:54:10.320Z,12.65
2023-03-18T04:59:04.615Z,15.73
2023-03-18T05:03:59.911Z,11.48
2023-03-18T05:09:05.352Z,14.13
2023-03-18T05:14:00.201Z,12.27
2023-03-18T05:18:54.088Z,17.40
2023-03-18T05:23:47.721Z,19.95
2023-03-18T05:28:41.519Z,14.60
2023-03-18T05:33:47.624Z,17.17
2023-03-18T05:38:41.560Z,11.32
2023-03-18T05:43:35.628Z,12.82
2023-03-18T05:48:29.032Z,14.27
2023-03-18T05:53:28.515Z,14.55
2023-03-18T05:58:31.488Z,17.63
2023-03-18T06:03:39.498Z,18.00
2023-03-18T06:08:38.097Z,20.83
2023-03-18T06:13:31.290Z,18.65
2023-03-18T06:18:25.317Z,15.45
2023-03-18T06:23:19.143Z,15.63
2023-03-18T06:28:13.589Z,13.98
2023-03-18T06:33:07.048Z,18.10
2023-03-18T06:37:59.435Z,17.65
2023-03-18T06:42:53.359Z,16.23
2023-03-18T06:48:01.780Z,19.60
2023-03-18T06:52:58.128Z,19.27
2023-03-18T06:57:57.166Z,18.50
2023-03-18T07:02:57.113Z,15.48
2023-03-18T07:07:52.476Z,18.30
2023-03-18T07:12:45.958Z,21.08
2023-03-18T07:17:39.324Z,23.58
2023-03-18T07:22:32.837Z,31.10
2023-03-18T07:27:26.129Z,19.40
2023-03-18T07:32:20.423Z,17.75
2023-03-18T07:37:13.446Z,22.35
2023-03-18T07:42:07.978Z,17.75
2023-03-18T07:47:02.366Z,18.20
2023-03-18T07:51:56.007Z,22.00
2023-03-18T07:56:49.529Z,18.25
2023-03-18T08:01:43.240Z,24.23
2023-03-18T08:06:38.400Z,21.35
2023-03-18T08:11:33.851Z,22.15
2023-03-18T08:16:26.620Z,14.55
2023-03-18T08:21:20.054Z,16.98
2023-03-18T08:26:13.688Z,25.83
2023-03-18T08:31:07.018Z,20.10
2023-03-18T08:36:00.101Z,15.05
2023-03-18T08:40:53.881Z,16.92
2023-03-18T08:45:48.037Z,28.23
2023-03-18T08:50:41.701Z,34.33
2023-03-18T08:55:37.340Z,12.38
2023-03-18T09:00:31.401Z,13.75
2023-03-18T09:05:25.927Z,13.18
2023-03-18T09:10:20.238Z,14.65
2023-03-18T09:15:16.883Z,18.75
2023-03-18T09:20:13.016Z,14.63
2023-03-18T09:25:07.697Z,13.32
2023-03-18T09:30:00.967Z,13.13
2023-03-18T09:34:54.717Z,13.73
2023-03-18T09:39:51.596Z,12.38
2023-03-18T09:44:45.570Z,11.02
2023-03-18T09:49:44.784Z,10.18
2023-03-18T09:55:00.505Z,10.07
2023-03-18T09:59:56.822Z,12.80
2023-03-18T10:04:56.573Z,9.73
2023-03-18T10:09:59.501Z,11.73
2023-03-18T10:15:09.141Z,13.00
2023-03-18T10:20:05.747Z,11.32
2023-03-18T10:25:07.890Z,8.93
2023-03-18T10:30:05.005Z,11.30
2023-03-18T10:35:19.046Z,9.75
2023-03-18T10:40:17.558Z,9.05
2023-03-18T10:45:24.678Z,9.75
2023-03-18T10:50:25.861Z,9.15
2023-03-18T10:55:22.455Z,12.73
2023-03-18T11:00:35.985Z,10.30
2023-03-18T11:05:35.879Z,14.02
2023-03-18T11:10:34.134Z,11.38
2023-03-18T11:15:28.205Z,7.07
2023-03-18T11:20:26.279Z,7.30
2023-03-18T11:25:26.663Z,9.82
2023-03-18T11:30:36.589Z,10.95
2023-03-18T11:35:49.525Z,9.70
2023-03-18T11:40:42.308Z,9.30
2023-03-18T11:45:39.662Z,11.48
2023-03-18T11:50:56.299Z,9.10
2023-03-18T11:55:51.922Z,11.40
2023-03-18T12:01:03.338Z,10.40
2023-03-18T12:05:58.980Z,10.55
2023-03-18T12:11:06.925Z,12.10
2023-03-18T12:16:19.026Z,13.00
2023-03-18T12:21:23.209Z,11.88
2023-03-18T12:26:26.890Z,12.45
2023-03-18T12:31:25.182Z,12.75
2023-03-18T12:36:44.648Z,11.20
2023-03-18T12:41:41.665Z,12.07
2023-03-18T12:47:07.224Z,13.55
2023-03-18T12:52:09.938Z,16.08
2023-03-18T12:57:08.648Z,12.30
2023-03-18T13:02:13.379Z,14.60
2023-03-18T13:07:37.576Z,13.82
2023-03-18T13:12:38.127Z,14.10
2023-03-18T13:17:39.525Z,15.63
2023-03-18T13:22:46.357Z,13.80
2023-03-18T13:27:54.690Z,15.68
2023-03-18T13:38:09.873Z,14.05
2023-03-18T13:43:03.850Z,13.65
2023-03-18T13:48:32.151Z,17.40
2023-03-18T13:53:30.982Z,17.02
2023-03-18T13:58:27.762Z,16.40
2023-03-18T14:03:33.751Z,15.13
2023-03-18T14:08:38.802Z,14.38
2023-03-18T14:13:34.986Z,15.27
2023-03-18T14:18:29.250Z,14.43
2023-03-18T14:23:28.301Z,16.33
2023-03-18T14:28:43.057Z,15.32
2023-03-18T14:33:52.428Z,18.73
2023-03-18T14:39:02.696Z,16.38
2023-03-18T14:43:59.148Z,19.90
2023-03-18T14:48:54.753Z,16.87
2023-03-18T14:54:11.389Z,16.00
2023-03-18T14:59:04.935Z,18.90
2023-03-18T15:03:58.293Z,17.50
2023-03-18T15:09:02.130Z,14.40
2023-03-18T15:13:58.798Z,13.50
2023-03-18T15:18:55.088Z,19.17
2023-03-18T15:23:48.855Z,14.25
2023-03-18T15:28:42.418Z,12.60
2023-03-18T15:33:38.045Z,14.18
2023-03-18T15:38:32.666Z,13.65
2023-03-18T15:43:40.041Z,15.70
2023-03-18T15:48:43.059Z,16.23
2023-03-18T15:53:43.202Z,16.45
2023-03-18T15:58:38.453Z,13.60
2023-03-18T16:03:34.859Z,15.45
2023-03-18T16:08:28.378Z,17.23
2023-03-18T16:13:24.878Z,20.67
2023-03-18T16:18:18.801Z,21.73
2023-03-18T16:23:13.119Z,18.58
2023-03-18T16:28:07.877Z,15.43
2023-03-18T16:33:01.440Z,15.98
2023-03-18T16:37:54.978Z,14.02
2023-03-18T16:42:48.633Z,22.13
2023-03-18T16:47:42.059Z,19.60
2023-03-18T16:52:35.712Z,16.90
2023-03-18T16:57:29.380Z,18.17
2023-03-18T17:02:34.430Z,12.52
2023-03-18T17:07:30.195Z,14.30
2023-03-18T17:12:24.945Z,13.68
2023-03-18T17:17:31.125Z,11.48
2023-03-18T17:22:27.034Z,15.80
2023-03-18T17:27:28.187Z,12.02
2023-03-18T17:32:22.520Z,12.15
2023-03-18T17:37:16.202Z,14.00
2023-03-18T17:42:25.672Z,18.02
2023-03-18T17:47:20.197Z,12.90
2023-03-18T17:52:15.509Z,13.48
2023-03-18T17:57:14.748Z,13.65
2023-03-18T18:02:18.665Z,15.25
2023-03-18T18:07:34.683Z,19.17
2023-03-18T18:12:29.404Z,17.95
2023-03-18T18:17:22.218Z,23.73
2023-03-18T18:22:21.153Z,25.80
2023-03-18T18:27:15.749Z,20.90
2023-03-18T18:32:10.021Z,14.77
2023-03-18T18:37:02.928Z,16.23
2023-03-18T18:41:56.136Z,20.00
2023-03-18T18:46:49.844Z,21.48
2023-03-18T18:51:43.414Z,22.65
2023-03-18T18:56:37.290Z,16.10
2023-03-18T19:01:31.383Z,16.15
2023-03-18T19:06:30.069Z,17.40
2023-03-18T19:11:24.957Z,21.90
2023-03-18T19:16:41.289Z,16.05
2023-03-18T19:21:35.113Z,17.23
2023-03-18T19:26:28.521Z,19.73
2023-03-18T19:31:27.405Z,26.58
2023-03-18T19:36:26.978Z,18.77
2023-03-18T19:41:21.762Z,20.92
2023-03-18T19:46:20.944Z,18.90
2023-03-18T19:51:15.950Z,20.23
2023-03-18T19:56:25.476Z,22.65
2023-03-18T20:01:21.098Z,35.25
2023-03-18T20:06:14.676Z,35.20
2023-03-18T20:11:13.136Z,27.98
2023-03-18T20:16:09.608Z,27.17
2023-03-18T20:21:04.120Z,32.60
2023-03-18T20:25:57.286Z,25.40
2023-03-18T20:30:53.285Z,23.85
2023-03-18T20:35:48.383Z,27.88
2023-03-18T20:40:43.307Z,24.42
2023-03-18T20:45:37.358Z,20.77
2023-03-18T20:50:31.781Z,19.80
2023-03-18T20:55:26.791Z,22.42
2023-03-18T21:00:24.103Z,20.88
2023-03-18T21:05:17.798Z,25.05
2023-03-18T21:10:23.706Z,21.08
2023-03-18T21:15:18.541Z,21.10
2023-03-18T21:20:22.629Z,29.98
2023-03-18T21:25:24.495Z,23.23
2023-03-18T21:30:19.973Z,20.25
2023-03-18T21:35:25.066Z,27.52
2023-03-18T21:40:25.301Z,25.35
2023-03-18T21:45:21.680Z,24.25
2023-03-18T21:50:23.306Z,24.15
2023-03-18T21:55:15.996Z,24.25
2023-03-18T22:00:21.131Z,23.20
2023-03-18T22:05:23.786Z,25.00
2023-03-18T22:10:20.614Z,24.38
2023-03-18T22:15:58.230Z,24.45
2023-03-18T22:20:52.814Z,23.23
2023-03-18T22:25:48.317Z,24.33
2023-03-18T22:30:42.925Z,26.13
2023-03-18T22:35:35.873Z,21.17
2023-03-18T22:40:31.110Z,21.38
2023-03-18T22:45:30.075Z,21.15
2023-03-18T22:50:23.294Z,22.83
2023-03-18T22:55:22.142Z,22.45
2023-03-18T23:00:26.015Z,24.00
2023-03-18T23:05:20.726Z,33.67
2023-03-18T23:10:14.855Z,22.05
2023-03-18T23:15:09.619Z,22.02
2023-03-18T23:20:03.595Z,21.42
2023-03-18T23:24:56.465Z,20.25
2023-03-18T23:29:49.537Z,23.73
2023-03-18T23:34:43.044Z,23.23
2023-03-18T23:39:39.794Z,22.88
2023-03-18T23:44:33.236Z,21.98
2023-03-18T23:49:29.738Z,22.33
2023-03-18T23:54:23.493Z,22.17
2023-03-18T23:59:17.605Z,25.38
